Terminal Aerodrome Forecast
Issued by NWS

Home | Current Version | Previous Version | Text Only | Print | Product List | Glossary On
Versions: 1 2 3 4 5 6 7 8 9 10 11 12 13 14 15 16 17 18
000
FTUS44 KEWX 221100
TAFSSF
TAF
KSSF 221136Z 2212/2312 VRB04KT P6SM FEW025 BKN150
     FM221900 10007KT P6SM FEW040 BKN150
     FM230600 VRB03KT P6SM FEW035 BKN120=

USA.gov is the U.S. government's official web portal to all federal, state and local government web resources and services.